Carp Lake, Michigan
Current Conditions -  °F | °C
As of 12:54 PM on Friday 28 Nov 2014 (Local Time) from KPLN Reporting Station
Light Snow Light Snow  
Wind Chill: 14°   Ceiling: 3200
Heat Index: 22°   Visibility: 4mi
Dew Point: 17°   Wind: 6mph
Humidity: 82%   Direction: 190°S
Pressure: 30.15"   Gusts: NA
Location:  45.7°N, 84.75°W
Report Text: KPLN 281754Z AUTO 19005KT 4SM -SN SCT019 BKN032 OVC042 M06/M08 A3015 RMK AO2 SLP224 P0000 60002 T10561083 11056 21089 58018
Loading
Personal Weather Stations






























Interactive Weather Map New forecast layout! Learn more

10-Day Weather Forecast

Advertisements
Track Severe Weather on mobile